sensor_id;sensor_type;location;lat;lon;timestamp;pressure;altitude;pressure_sealevel;temperature;humidity
5500;BME280;2772;42.700;23.304;2022-07-23T00:01:30;95383.06;;;24.61;87.06
5500;BME280;2772;42.700;23.304;2022-07-23T00:03:57;95385.78;;;24.54;91.88
5500;BME280;2772;42.700;23.304;2022-07-23T00:06:24;95390.84;;;24.52;94.22
5500;BME280;2772;42.700;23.304;2022-07-23T00:08:51;95386.16;;;24.49;91.74
5500;BME280;2772;42.700;23.304;2022-07-23T00:11:18;95383.06;;;24.47;92.55
5500;BME280;2772;42.700;23.304;2022-07-23T00:13:45;95390.84;;;24.48;91.85
5500;BME280;2772;42.700;23.304;2022-07-23T00:16:13;95386.16;;;24.45;93.36
5500;BME280;2772;42.700;23.304;2022-07-23T00:18:41;95386.56;;;24.37;94.20
5500;BME280;2772;42.700;23.304;2022-07-23T00:21:08;95392.75;;;24.37;91.66
5500;BME280;2772;42.700;23.304;2022-07-23T00:23:35;95395.50;;;24.37;93.36
5500;BME280;2772;42.700;23.304;2022-07-23T00:26:02;95397.81;;;24.28;94.81
5500;BME280;2772;42.700;23.304;2022-07-23T00:28:29;95396.66;;;24.33;93.88
5500;BME280;2772;42.700;23.304;2022-07-23T00:30:56;95393.13;;;24.25;93.12
5500;BME280;2772;42.700;23.304;2022-07-23T00:33:23;95394.28;;;24.28;91.72
5500;BME280;2772;42.700;23.304;2022-07-23T00:35:51;95390.81;;;24.27;92.15
5500;BME280;2772;42.700;23.304;2022-07-23T00:38:18;95392.75;;;24.27;92.62
5500;BME280;2772;42.700;23.304;2022-07-23T00:40:45;95398.19;;;24.23;98.63
5500;BME280;2772;42.700;23.304;2022-07-23T00:43:12;95394.69;;;24.23;95.41
5500;BME280;2772;42.700;23.304;2022-07-23T00:45:39;95393.53;;;24.24;93.51
5500;BME280;2772;42.700;23.304;2022-07-23T00:48:07;95395.47;;;24.20;94.97
5500;BME280;2772;42.700;23.304;2022-07-23T00:50:34;95397.75;;;24.11;98.62
5500;BME280;2772;42.700;23.304;2022-07-23T00:53:02;95398.53;;;24.08;99.80
5500;BME280;2772;42.700;23.304;2022-07-23T00:55:29;95400.03;;;23.95;100.00
5500;BME280;2772;42.700;23.304;2022-07-23T00:57:57;95394.25;;;23.96;100.00
5500;BME280;2772;42.700;23.304;2022-07-23T01:00:25;95393.84;;;23.98;100.00
5500;BME280;2772;42.700;23.304;2022-07-23T01:02:52;95395.00;;;24.00;100.00
5500;BME280;2772;42.700;23.304;2022-07-23T01:05:18;95397.31;;;23.95;100.00
5500;BME280;2772;42.700;23.304;2022-07-23T01:07:47;95394.94;;;23.79;100.00
5500;BME280;2772;42.700;23.304;2022-07-23T01:10:16;95394.94;;;23.79;100.00
5500;BME280;2772;42.700;23.304;2022-07-23T01:12:58;95391.44;;;23.86;100.00
5500;BME280;2772;42.700;23.304;2022-07-23T01:15:26;95393.78;;;23.84;100.00
5500;BME280;2772;42.700;23.304;2022-07-23T01:17:53;95391.81;;;23.84;100.00
5500;BME280;2772;42.700;23.304;2022-07-23T01:20:21;95392.59;;;23.78;100.00
5500;BME280;2772;42.700;23.304;2022-07-23T01:22:49;95392.59;;;23.81;100.00
5500;BME280;2772;42.700;23.304;2022-07-23T01:25:16;95387.53;;;23.80;100.00
5500;BME280;2772;42.700;23.304;2022-07-23T01:27:43;95392.59;;;23.78;100.00
5500;BME280;2772;42.700;23.304;2022-07-23T01:30:11;95392.16;;;23.72;100.00
5500;BME280;2772;42.700;23.304;2022-07-23T01:32:38;95384.38;;;23.71;100.00
5500;BME280;2772;42.700;23.304;2022-07-23T01:35:06;95385.91;;;23.61;100.00
5500;BME280;2772;42.700;23.304;2022-07-23T01:37:34;95380.06;;;23.59;100.00
5500;BME280;2772;42.700;23.304;2022-07-23T01:40:02;95377.28;;;23.48;100.00
5500;BME280;2772;42.700;23.304;2022-07-23T01:42:29;95378.81;;;23.42;100.00
5500;BME280;2772;42.700;23.304;2022-07-23T01:44:57;95369.50;;;23.43;100.00
5500;BME280;2772;42.700;23.304;2022-07-23T01:47:23;95377.28;;;23.41;100.00
5500;BME280;2772;42.700;23.304;2022-07-23T01:49:50;95383.47;;;23.38;100.00
5500;BME280;2772;42.700;23.304;2022-07-23T01:52:17;95381.88;;;23.30;100.00
5500;BME280;2772;42.700;23.304;2022-07-23T01:54:44;95380.28;;;23.26;100.00
5500;BME280;2772;42.700;23.304;2022-07-23T01:57:13;95385.22;;;23.17;100.00
5500;BME280;2772;42.700;23.304;2022-07-23T01:59:39;95382.91;;;23.15;100.00
5500;BME280;2772;42.700;23.304;2022-07-23T02:02:06;95381.69;;;23.09;100.00
5500;BME280;2772;42.700;23.304;2022-07-23T02:04:33;95383.22;;;23.03;100.00
5500;BME280;2772;42.700;23.304;2022-07-23T02:07:02;95387.44;;;22.97;100.00
5500;BME280;2772;42.700;23.304;2022-07-23T02:09:29;95386.25;;;22.91;100.00
5500;BME280;2772;42.700;23.304;2022-07-23T02:11:56;95388.22;;;22.94;100.00
5500;BME280;2772;42.700;23.304;2022-07-23T02:14:25;95386.25;;;22.91;100.00
5500;BME280;2772;42.700;23.304;2022-07-23T02:16:52;95381.47;;;22.74;100.00
5500;BME280;2772;42.700;23.304;2022-07-23T02:19:19;95393.09;;;22.75;100.00
5500;BME280;2772;42.700;23.304;2022-07-23T02:21:46;95395.44;;;22.76;100.00
5500;BME280;2772;42.700;23.304;2022-07-23T02:24:13;95398.53;;;22.75;100.00
5500;BME280;2772;42.700;23.304;2022-07-23T02:26:40;95387.28;;;22.73;100.00
5500;BME280;2772;42.700;23.304;2022-07-23T02:29:07;95385.31;;;22.70;100.00
5500;BME280;2772;42.700;23.304;2022-07-23T02:31:35;95383.59;;;22.51;100.00
5500;BME280;2772;42.700;23.304;2022-07-23T02:34:02;95384.81;;;22.61;100.00
5500;BME280;2772;42.700;23.304;2022-07-23T02:36:29;95387.53;;;22.57;100.00
5500;BME280;2772;42.700;23.304;2022-07-23T02:38:56;95384.38;;;22.52;100.00
5500;BME280;2772;42.700;23.304;2022-07-23T02:41:23;95401.38;;;22.49;100.00
5500;BME280;2772;42.700;23.304;2022-07-23T02:43:50;95393.63;;;22.47;100.00
5500;BME280;2772;42.700;23.304;2022-07-23T02:46:17;95397.50;;;22.46;100.00
5500;BME280;2772;42.700;23.304;2022-07-23T02:48:45;95389.25;;;22.36;100.00
5500;BME280;2772;42.700;23.304;2022-07-23T02:51:12;95393.44;;;22.30;100.00
5500;BME280;2772;42.700;23.304;2022-07-23T02:53:39;95393.16;;;22.38;100.00
5500;BME280;2772;42.700;23.304;2022-07-23T02:56:06;95401.34;;;22.45;100.00
5500;BME280;2772;42.700;23.304;2022-07-23T02:58:33;95407.97;;;22.48;100.00
5500;BME280;2772;42.700;23.304;2022-07-23T03:01:00;95409.84;;;22.40;100.00
5500;BME280;2772;42.700;23.304;2022-07-23T03:03:27;95413.31;;;22.37;100.00
5500;BME280;2772;42.700;23.304;2022-07-23T03:05:55;95412.91;;;22.35;100.00
5500;BME280;2772;42.700;23.304;2022-07-23T03:08:22;95417.59;;;22.38;100.00
5500;BME280;2772;42.700;23.304;2022-07-23T03:10:48;95416.38;;;22.32;100.00
5500;BME280;2772;42.700;23.304;2022-07-23T03:13:16;95417.06;;;22.26;100.00
5500;BME280;2772;42.700;23.304;2022-07-23T03:15:43;95419.81;;;22.29;100.00
5500;BME280;2772;42.700;23.304;2022-07-23T03:18:10;95422.56;;;22.33;100.00
5500;BME280;2772;42.700;23.304;2022-07-23T03:20:37;95429.53;;;22.30;100.00
5500;BME280;2772;42.700;23.304;2022-07-23T03:23:05;95429.84;;;22.25;100.00
5500;BME280;2772;42.700;23.304;2022-07-23T03:25:32;95429.75;;;22.15;100.00
5500;BME280;2772;42.700;23.304;2022-07-23T03:27:59;95428.56;;;22.12;100.00
5500;BME280;2772;42.700;23.304;2022-07-23T03:30:26;95432.09;;;22.16;100.00
5500;BME280;2772;42.700;23.304;2022-07-23T03:32:53;95431.22;;;22.09;100.00
5500;BME280;2772;42.700;23.304;2022-07-23T03:35:20;95438.25;;;22.13;100.00
5500;BME280;2772;42.700;23.304;2022-07-23T03:37:46;95439.81;;;22.14;100.00
5500;BME280;2772;42.700;23.304;2022-07-23T03:40:15;95440.94;;;22.10;100.00
5500;BME280;2772;42.700;23.304;2022-07-23T03:42:42;95439.47;;;22.19;100.00
5500;BME280;2772;42.700;23.304;2022-07-23T03:45:09;95445.16;;;22.07;100.00
5500;BME280;2772;42.700;23.304;2022-07-23T03:47:36;95439.75;;;22.07;100.00
5500;BME280;2772;42.700;23.304;2022-07-23T03:50:05;95441.25;;;22.05;100.00
5500;BME280;2772;42.700;23.304;2022-07-23T03:52:32;95436.53;;;21.98;100.00
5500;BME280;2772;42.700;23.304;2022-07-23T03:54:59;95440.38;;;21.97;100.00
5500;BME280;2772;42.700;23.304;2022-07-23T03:57:27;95441.44;;;21.85;100.00
5500;BME280;2772;42.700;23.304;2022-07-23T03:59:54;95446.00;;;21.81;100.00
5500;BME280;2772;42.700;23.304;2022-07-23T04:02:21;95438.34;;;21.87;100.00
5500;BME280;2772;42.700;23.304;2022-07-23T04:04:47;95434.84;;;21.86;100.00
5500;BME280;2772;42.700;23.304;2022-07-23T04:07:14;95438.06;;;21.95;100.00
5500;BME280;2772;42.700;23.304;2022-07-23T04:09:43;95441.09;;;21.90;100.00
5500;BME280;2772;42.700;23.304;2022-07-23T04:12:09;95441.56;;;21.96;100.00
5500;BME280;2772;42.700;23.304;2022-07-23T04:14:38;95441.75;;;22.14;100.00
5500;BME280;2772;42.700;23.304;2022-07-23T04:17:05;95442.97;;;22.20;100.00
5500;BME280;2772;42.700;23.304;2022-07-23T04:19:31;95441.44;;;22.22;100.00
5500;BME280;2772;42.700;23.304;2022-07-23T04:21:58;95438.81;;;22.29;100.00
5500;BME280;2772;42.700;23.304;2022-07-23T04:24:25;95438.59;;;22.48;100.00
5500;BME280;2772;42.700;23.304;2022-07-23T04:26:52;95453.50;;;22.61;100.00
5500;BME280;2772;42.700;23.304;2022-07-23T04:29:19;95450.50;;;22.70;100.00
5500;BME280;2772;42.700;23.304;2022-07-23T04:31:48;95452.84;;;22.71;100.00
5500;BME280;2772;42.700;23.304;2022-07-23T04:34:14;95452.09;;;22.74;100.00
5500;BME280;2772;42.700;23.304;2022-07-23T04:36:42;95459.16;;;22.86;100.00
5500;BME280;2772;42.700;23.304;2022-07-23T04:41:35;95451.03;;;22.89;100.00
5500;BME280;2772;42.700;23.304;2022-07-23T04:44:02;95444.47;;;22.94;100.00
5500;BME280;2772;42.700;23.304;2022-07-23T04:46:29;95456.09;;;22.91;100.00
5500;BME280;2772;42.700;23.304;2022-07-23T04:48:58;95449.56;;;22.99;100.00
5500;BME280;2772;42.700;23.304;2022-07-23T04:51:24;95460.84;;;23.01;100.00
5500;BME280;2772;42.700;23.304;2022-07-23T04:53:51;95462.47;;;23.12;100.00
5500;BME280;2772;42.700;23.304;2022-07-23T04:56:18;95463.63;;;23.08;100.00
5500;BME280;2772;42.700;23.304;2022-07-23T04:58:45;95465.34;;;23.26;100.00
5500;BME280;2772;42.700;23.304;2022-07-23T05:01:12;95467.19;;;23.19;100.00
5500;BME280;2772;42.700;23.304;2022-07-23T05:03:39;95465.03;;;23.38;100.00
5500;BME280;2772;42.700;23.304;2022-07-23T05:06:07;95464.66;;;23.40;100.00
5500;BME280;2772;42.700;23.304;2022-07-23T05:08:34;95459.25;;;23.47;100.00
5500;BME280;2772;42.700;23.304;2022-07-23T05:11:01;95460.47;;;23.57;100.00
5500;BME280;2772;42.700;23.304;2022-07-23T05:13:28;95460.94;;;23.69;100.00
5500;BME280;2772;42.700;23.304;2022-07-23T05:15:55;95466.06;;;23.78;100.00
5500;BME280;2772;42.700;23.304;2022-07-23T05:18:22;95462.56;;;23.84;100.00
5500;BME280;2772;42.700;23.304;2022-07-23T05:20:49;95464.25;;;24.03;100.00
5500;BME280;2772;42.700;23.304;2022-07-23T05:23:17;95465.41;;;24.02;100.00
5500;BME280;2772;42.700;23.304;2022-07-23T05:25:44;95465.34;;;23.95;100.00
5500;BME280;2772;42.700;23.304;2022-07-23T05:28:11;95473.16;;;24.00;100.00
5500;BME280;2772;42.700;23.304;2022-07-23T05:30:38;95467.00;;;24.10;100.00
5500;BME280;2772;42.700;23.304;2022-07-23T05:33:05;95464.66;;;24.15;100.00
5500;BME280;2772;42.700;23.304;2022-07-23T05:35:33;95473.66;;;24.30;100.00
5500;BME280;2772;42.700;23.304;2022-07-23T05:37:59;95474.84;;;24.36;100.00
5500;BME280;2772;42.700;23.304;2022-07-23T05:40:28;95473.34;;;24.49;99.25
5500;BME280;2772;42.700;23.304;2022-07-23T05:42:55;95472.56;;;24.52;97.57
5500;BME280;2772;42.700;23.304;2022-07-23T05:45:21;95478.75;;;24.42;95.30
5500;BME280;2772;42.700;23.304;2022-07-23T05:47:49;95476.81;;;24.42;96.94
5500;BME280;2772;42.700;23.304;2022-07-23T05:50:16;95469.81;;;24.48;94.23
5500;BME280;2772;42.700;23.304;2022-07-23T05:52:43;95465.63;;;24.68;95.29
5500;BME280;2772;42.700;23.304;2022-07-23T05:55:11;95467.97;;;24.80;92.44
5500;BME280;2772;42.700;23.304;2022-07-23T05:57:40;95468.78;;;25.02;88.69
5500;BME280;2772;42.700;23.304;2022-07-23T06:00:08;95474.22;;;25.16;88.19
5500;BME280;2772;42.700;23.304;2022-07-23T06:02:37;95468.00;;;25.37;87.03
5500;BME280;2772;42.700;23.304;2022-07-23T06:05:04;95470.34;;;25.56;84.92
5500;BME280;2772;42.700;23.304;2022-07-23T06:07:33;95463.28;;;25.65;85.53
5500;BME280;2772;42.700;23.304;2022-07-23T06:10:00;95454.69;;;25.77;83.20
5500;BME280;2772;42.700;23.304;2022-07-23T06:12:26;95460.09;;;25.91;82.58
5500;BME280;2772;42.700;23.304;2022-07-23T06:14:55;95463.19;;;25.93;81.38
5500;BME280;2772;42.700;23.304;2022-07-23T06:17:22;95458.53;;;25.90;81.93
5500;BME280;2772;42.700;23.304;2022-07-23T06:19:49;95460.47;;;26.00;82.81
5500;BME280;2772;42.700;23.304;2022-07-23T06:22:15;95464.34;;;26.10;83.52
5500;BME280;2772;42.700;23.304;2022-07-23T06:24:42;95460.75;;;26.23;82.37
5500;BME280;2772;42.700;23.304;2022-07-23T06:27:09;95451.41;;;26.21;81.88
5500;BME280;2772;42.700;23.304;2022-07-23T06:29:36;95460.75;;;26.30;82.20
5500;BME280;2772;42.700;23.304;2022-07-23T06:32:05;95452.91;;;26.32;83.58
5500;BME280;2772;42.700;23.304;2022-07-23T06:34:32;95454.41;;;26.44;83.24
5500;BME280;2772;42.700;23.304;2022-07-23T06:37:00;95448.91;;;26.51;81.92
5500;BME280;2772;42.700;23.304;2022-07-23T06:39:26;95459.41;;;26.60;81.52
5500;BME280;2772;42.700;23.304;2022-07-23T06:41:54;95459.78;;;26.65;81.52
5500;BME280;2772;42.700;23.304;2022-07-23T06:44:21;95455.41;;;26.75;80.76
5500;BME280;2772;42.700;23.304;2022-07-23T06:46:48;95462.00;;;26.84;80.51
5500;BME280;2772;42.700;23.304;2022-07-23T06:49:16;95451.09;;;26.81;78.70
5500;BME280;2772;42.700;23.304;2022-07-23T06:51:45;95449.44;;;26.90;79.01
5500;BME280;2772;42.700;23.304;2022-07-23T06:54:11;95445.91;;;26.93;78.44
5500;BME280;2772;42.700;23.304;2022-07-23T06:56:39;95443.53;;;26.99;78.73
5500;BME280;2772;42.700;23.304;2022-07-23T06:59:06;95450.09;;;27.08;76.60
5500;BME280;2772;42.700;23.304;2022-07-23T07:01:32;95443.81;;;27.15;77.59
5500;BME280;2772;42.700;23.304;2022-07-23T07:03:59;95448.00;;;27.26;76.09
5500;BME280;2772;42.700;23.304;2022-07-23T07:06:27;95444.13;;;27.27;76.77
5500;BME280;2772;42.700;23.304;2022-07-23T07:08:54;95444.44;;;27.33;73.69
5500;BME280;2772;42.700;23.304;2022-07-23T07:11:23;95439.66;;;27.40;74.33
5500;BME280;2772;42.700;23.304;2022-07-23T07:13:50;95430.72;;;27.36;74.21
5500;BME280;2772;42.700;23.304;2022-07-23T07:16:17;95438.44;;;27.45;74.20
5500;BME280;2772;42.700;23.304;2022-07-23T07:18:44;95427.06;;;27.50;74.23
5500;BME280;2772;42.700;23.304;2022-07-23T07:21:11;95441.38;;;27.68;73.02
5500;BME280;2772;42.700;23.304;2022-07-23T07:23:40;95435.72;;;27.82;71.16
5500;BME280;2772;42.700;23.304;2022-07-23T07:26:07;95427.56;;;27.78;70.69
5500;BME280;2772;42.700;23.304;2022-07-23T07:28:34;95427.88;;;27.87;70.59
5500;BME280;2772;42.700;23.304;2022-07-23T07:31:01;95424.28;;;27.94;70.17
5500;BME280;2772;42.700;23.304;2022-07-23T07:33:28;95424.25;;;27.98;68.71
5500;BME280;2772;42.700;23.304;2022-07-23T07:35:55;95424.16;;;28.01;69.40
5500;BME280;2772;42.700;23.304;2022-07-23T07:38:22;95425.63;;;28.09;69.05
5500;BME280;2772;42.700;23.304;2022-07-23T07:40:50;95421.22;;;28.19;67.77
5500;BME280;2772;42.700;23.304;2022-07-23T07:43:17;95418.31;;;28.29;65.85
5500;BME280;2772;42.700;23.304;2022-07-23T07:45:44;95425.28;;;28.37;64.58
5500;BME280;2772;42.700;23.304;2022-07-23T07:48:11;95425.22;;;28.41;63.45
5500;BME280;2772;42.700;23.304;2022-07-23T07:50:38;95420.03;;;28.50;63.11
5500;BME280;2772;42.700;23.304;2022-07-23T07:53:05;95416.41;;;28.56;63.18
5500;BME280;2772;42.700;23.304;2022-07-23T07:55:32;95421.41;;;28.65;62.55
5500;BME280;2772;42.700;23.304;2022-07-23T07:58:00;95415.75;;;28.75;63.52
5500;BME280;2772;42.700;23.304;2022-07-23T08:00:28;95408.97;;;28.83;63.64
5500;BME280;2772;42.700;23.304;2022-07-23T08:02:55;95409.56;;;28.94;61.27
5500;BME280;2772;42.700;23.304;2022-07-23T08:05:23;95410.34;;;28.95;61.22
5500;BME280;2772;42.700;23.304;2022-07-23T08:07:51;95408.84;;;28.90;61.08
5500;BME280;2772;42.700;23.304;2022-07-23T08:10:18;95404.09;;;28.94;61.67
5500;BME280;2772;42.700;23.304;2022-07-23T08:12:46;95410.59;;;29.04;60.93
5500;BME280;2772;42.700;23.304;2022-07-23T08:15:18;95405.78;;;29.11;60.24
5500;BME280;2772;42.700;23.304;2022-07-23T08:17:47;95398.25;;;29.15;58.22
5500;BME280;2772;42.700;23.304;2022-07-23T08:20:16;95407.09;;;29.26;59.00
5500;BME280;2772;42.700;23.304;2022-07-23T08:22:45;95412.16;;;29.28;56.59
5500;BME280;2772;42.700;23.304;2022-07-23T08:25:12;95397.53;;;29.34;55.99
5500;BME280;2772;42.700;23.304;2022-07-23T08:27:39;95402.66;;;29.32;56.79
5500;BME280;2772;42.700;23.304;2022-07-23T08:30:07;95394.78;;;29.34;56.52
5500;BME280;2772;42.700;23.304;2022-07-23T08:32:50;95406.91;;;29.37;57.17
5500;BME280;2772;42.700;23.304;2022-07-23T08:35:17;95392.41;;;29.36;57.05
5500;BME280;2772;42.700;23.304;2022-07-23T08:37:44;95396.50;;;29.48;58.62
5500;BME280;2772;42.700;23.304;2022-07-23T08:40:11;95392.44;;;29.56;57.98
5500;BME280;2772;42.700;23.304;2022-07-23T08:42:39;95396.25;;;29.62;56.10
5500;BME280;2772;42.700;23.304;2022-07-23T08:45:07;95393.81;;;29.68;55.55
5500;BME280;2772;42.700;23.304;2022-07-23T08:47:37;95391.00;;;29.71;55.87
5500;BME280;2772;42.700;23.304;2022-07-23T08:50:07;95386.06;;;29.82;56.32
5500;BME280;2772;42.700;23.304;2022-07-23T08:52:34;95387.91;;;29.89;55.26
5500;BME280;2772;42.700;23.304;2022-07-23T08:55:03;95380.38;;;29.93;55.12
5500;BME280;2772;42.700;23.304;2022-07-23T08:57:30;95377.41;;;30.03;55.21
5500;BME280;2772;42.700;23.304;2022-07-23T08:59:57;95377.53;;;30.16;54.23
5500;BME280;2772;42.700;23.304;2022-07-23T09:02:23;95371.59;;;30.17;54.14
5500;BME280;2772;42.700;23.304;2022-07-23T09:04:50;95378.94;;;30.24;54.12
5500;BME280;2772;42.700;23.304;2022-07-23T09:07:19;95374.22;;;30.24;53.03
5500;BME280;2772;42.700;23.304;2022-07-23T09:09:45;95374.13;;;30.28;53.69
5500;BME280;2772;42.700;23.304;2022-07-23T09:12:12;95374.75;;;30.35;53.55
5500;BME280;2772;42.700;23.304;2022-07-23T09:14:41;95375.81;;;30.41;51.18
5500;BME280;2772;42.700;23.304;2022-07-23T09:17:09;95369.72;;;30.50;50.97
5500;BME280;2772;42.700;23.304;2022-07-23T09:19:40;95380.91;;;30.59;49.99
5500;BME280;2772;42.700;23.304;2022-07-23T09:22:19;95372.50;;;30.66;49.04
5500;BME280;2772;42.700;23.304;2022-07-23T09:25:09;95371.63;;;30.69;48.58
5500;BME280;2772;42.700;23.304;2022-07-23T09:27:48;95377.34;;;30.78;49.92
5500;BME280;2772;42.700;23.304;2022-07-23T09:30:15;95367.72;;;30.86;49.49
5500;BME280;2772;42.700;23.304;2022-07-23T09:32:42;95365.81;;;30.99;48.14
5500;BME280;2772;42.700;23.304;2022-07-23T09:35:10;95355.63;;;31.12;48.60
5500;BME280;2772;42.700;23.304;2022-07-23T09:37:38;95360.88;;;31.23;45.46
5500;BME280;2772;42.700;23.304;2022-07-23T09:40:07;95362.25;;;31.31;44.60
5500;BME280;2772;42.700;23.304;2022-07-23T09:42:35;95358.75;;;31.30;42.71
5500;BME280;2772;42.700;23.304;2022-07-23T09:45:03;95342.97;;;31.31;43.94
5500;BME280;2772;42.700;23.304;2022-07-23T09:47:31;95349.41;;;31.40;42.39
5500;BME280;2772;42.700;23.304;2022-07-23T09:49:59;95339.41;;;31.46;43.11
5500;BME280;2772;42.700;23.304;2022-07-23T09:52:32;95348.38;;;31.50;42.84
5500;BME280;2772;42.700;23.304;2022-07-23T09:55:02;95347.41;;;31.57;42.72
5500;BME280;2772;42.700;23.304;2022-07-23T09:57:31;95342.56;;;31.61;42.16
5500;BME280;2772;42.700;23.304;2022-07-23T10:00:02;95337.63;;;31.68;41.81
5500;BME280;2772;42.700;23.304;2022-07-23T10:02:32;95336.56;;;31.78;40.80
5500;BME280;2772;42.700;23.304;2022-07-23T10:04:59;95331.41;;;31.80;39.29
5500;BME280;2772;42.700;23.304;2022-07-23T10:07:27;95326.19;;;31.82;38.79
5500;BME280;2772;42.700;23.304;2022-07-23T10:10:01;95326.34;;;31.91;39.16
5500;BME280;2772;42.700;23.304;2022-07-23T10:12:28;95323.75;;;32.00;37.32
5500;BME280;2772;42.700;23.304;2022-07-23T10:15:18;95318.31;;;31.97;36.43
5500;BME280;2772;42.700;23.304;2022-07-23T10:17:45;95322.88;;;32.03;36.30
5500;BME280;2772;42.700;23.304;2022-07-23T10:20:12;95319.97;;;32.07;35.87
5500;BME280;2772;42.700;23.304;2022-07-23T10:22:44;95315.25;;;32.07;35.96
5500;BME280;2772;42.700;23.304;2022-07-23T10:25:21;95320.34;;;32.21;34.72
5500;BME280;2772;42.700;23.304;2022-07-23T10:28:04;95316.16;;;32.29;35.87
5500;BME280;2772;42.700;23.304;2022-07-23T10:30:39;95316.06;;;32.33;34.67
5500;BME280;2772;42.700;23.304;2022-07-23T10:33:26;95314.31;;;32.39;34.97
5500;BME280;2772;42.700;23.304;2022-07-23T10:36:03;95313.31;;;32.46;34.87
5500;BME280;2772;42.700;23.304;2022-07-23T10:38:39;95307.34;;;32.47;34.04
5500;BME280;2772;42.700;23.304;2022-07-23T10:41:10;95302.94;;;32.50;33.85
5500;BME280;2772;42.700;23.304;2022-07-23T10:43:37;95302.19;;;32.49;33.66
5500;BME280;2772;42.700;23.304;2022-07-23T10:46:24;95304.81;;;32.53;32.98
5500;BME280;2772;42.700;23.304;2022-07-23T10:49:25;95298.09;;;32.54;32.84
5500;BME280;2772;42.700;23.304;2022-07-23T10:52:17;95291.69;;;32.57;33.49
5500;BME280;2772;42.700;23.304;2022-07-23T10:54:46;95286.81;;;32.61;32.27
5500;BME280;2772;42.700;23.304;2022-07-23T10:57:17;95281.06;;;32.68;31.32
5500;BME280;2772;42.700;23.304;2022-07-23T11:00:24;95278.84;;;32.75;31.33
5500;BME280;2772;42.700;23.304;2022-07-23T11:02:52;95287.53;;;32.86;27.99
5500;BME280;2772;42.700;23.304;2022-07-23T11:05:20;95277.94;;;32.91;27.23
5500;BME280;2772;42.700;23.304;2022-07-23T11:08:17;95275.59;;;33.02;26.45
5500;BME280;2772;42.700;23.304;2022-07-23T11:10:48;95273.91;;;33.04;27.58
5500;BME280;2772;42.700;23.304;2022-07-23T11:13:44;95270.38;;;33.04;28.02
5500;BME280;2772;42.700;23.304;2022-07-23T11:16:16;95262.09;;;33.04;28.46
5500;BME280;2772;42.700;23.304;2022-07-23T11:19:04;95256.56;;;33.04;28.79
5500;BME280;2772;42.700;23.304;2022-07-23T11:21:51;95253.69;;;33.07;29.03
5500;BME280;2772;42.700;23.304;2022-07-23T11:24:23;95246.81;;;33.12;27.76
5500;BME280;2772;42.700;23.304;2022-07-23T11:26:55;95251.66;;;33.20;28.16
5500;BME280;2772;42.700;23.304;2022-07-23T11:29:49;95240.22;;;33.31;27.75
5500;BME280;2772;42.700;23.304;2022-07-23T11:32:32;95240.63;;;33.42;26.49
5500;BME280;2772;42.700;23.304;2022-07-23T11:35:01;95249.13;;;33.47;26.91
5500;BME280;2772;42.700;23.304;2022-07-23T11:37:36;95245.53;;;33.59;26.90
5500;BME280;2772;42.700;23.304;2022-07-23T11:40:07;95233.69;;;33.59;26.00
5500;BME280;2772;42.700;23.304;2022-07-23T11:42:36;95227.25;;;33.62;26.75
5500;BME280;2772;42.700;23.304;2022-07-23T11:45:08;95225.44;;;33.68;26.68
5500;BME280;2772;42.700;23.304;2022-07-23T11:47:35;95232.44;;;33.82;26.34
5500;BME280;2772;42.700;23.304;2022-07-23T11:50:05;95220.66;;;33.90;27.12
5500;BME280;2772;42.700;23.304;2022-07-23T11:52:32;95220.22;;;33.92;25.89
5500;BME280;2772;42.700;23.304;2022-07-23T11:55:01;95217.44;;;33.92;26.27
5500;BME280;2772;42.700;23.304;2022-07-23T11:57:30;95215.78;;;33.94;25.43
5500;BME280;2772;42.700;23.304;2022-07-23T12:00:01;95214.56;;;33.95;25.71
5500;BME280;2772;42.700;23.304;2022-07-23T12:02:30;95221.16;;;33.98;24.99
5500;BME280;2772;42.700;23.304;2022-07-23T12:04:57;95220.25;;;34.01;25.25
5500;BME280;2772;42.700;23.304;2022-07-23T12:07:30;95213.06;;;34.03;25.88
5500;BME280;2772;42.700;23.304;2022-07-23T12:09:58;95218.28;;;34.10;25.80
5500;BME280;2772;42.700;23.304;2022-07-23T12:12:26;95215.84;;;34.12;25.77
5500;BME280;2772;42.700;23.304;2022-07-23T12:14:55;95206.63;;;34.15;26.15
5500;BME280;2772;42.700;23.304;2022-07-23T12:17:31;95204.97;;;34.18;25.82
5500;BME280;2772;42.700;23.304;2022-07-23T12:19:59;95201.44;;;34.26;26.40
5500;BME280;2772;42.700;23.304;2022-07-23T12:22:34;95199.16;;;34.34;25.86
5500;BME280;2772;42.700;23.304;2022-07-23T12:25:04;95198.00;;;34.44;26.26
5500;BME280;2772;42.700;23.304;2022-07-23T12:27:32;95192.91;;;34.42;25.06
5500;BME280;2772;42.700;23.304;2022-07-23T12:30:15;95193.25;;;34.44;25.31
5500;BME280;2772;42.700;23.304;2022-07-23T12:32:45;95198.94;;;34.50;23.75
5500;BME280;2772;42.700;23.304;2022-07-23T12:35:12;95195.09;;;34.47;24.12
5500;BME280;2772;42.700;23.304;2022-07-23T12:37:50;95189.56;;;34.47;23.35
5500;BME280;2772;42.700;23.304;2022-07-23T12:40:25;95186.47;;;34.45;22.96
5500;BME280;2772;42.700;23.304;2022-07-23T12:42:54;95189.38;;;34.51;23.44
5500;BME280;2772;42.700;23.304;2022-07-23T12:45:22;95183.84;;;34.51;23.35
5500;BME280;2772;42.700;23.304;2022-07-23T12:48:02;95177.38;;;34.54;23.83
5500;BME280;2772;42.700;23.304;2022-07-23T12:50:47;95178.50;;;34.56;24.00
5500;BME280;2772;42.700;23.304;2022-07-23T12:53:17;95169.72;;;34.58;23.73
5500;BME280;2772;42.700;23.304;2022-07-23T12:55:45;95174.81;;;34.59;23.52
5500;BME280;2772;42.700;23.304;2022-07-23T12:58:14;95171.72;;;34.66;23.57
5500;BME280;2772;42.700;23.304;2022-07-23T13:00:54;95165.56;;;34.71;22.86
5500;BME280;2772;42.700;23.304;2022-07-23T13:03:31;95164.81;;;34.80;22.86
5500;BME280;2772;42.700;23.304;2022-07-23T13:05:59;95165.16;;;34.91;23.11
5500;BME280;2772;42.700;23.304;2022-07-23T13:08:29;95158.22;;;34.95;22.05
5500;BME280;2772;42.700;23.304;2022-07-23T13:10:57;95161.28;;;34.97;22.18
5500;BME280;2772;42.700;23.304;2022-07-23T13:13:26;95151.31;;;35.00;22.84
5500;BME280;2772;42.700;23.304;2022-07-23T13:15:53;95157.91;;;35.02;23.24
5500;BME280;2772;42.700;23.304;2022-07-23T13:18:21;95161.31;;;35.06;23.18
5500;BME280;2772;42.700;23.304;2022-07-23T13:20:50;95157.91;;;35.02;22.37